Addison, Texas
Current Conditions -  °F | °C
As of 5:47 AM on Saturday 25 Oct 2014 (Local Time) from KADS Reporting Station
Clear Clear  
Wind Chill: 66°   Ceiling: Unl
Heat Index: 66°   Visibility: 13mi
Dew Point: 57°   Wind: 8mph
Humidity: 73%   Direction: 160°SSE
Pressure: 30.11"   Gusts: NA
Location:  32.95°N, 96.82°W
Report Text: KADS 251047Z 16007KT 13SM SKC 19/14 A3011
Loading
Personal Weather Stations






























Interactive Weather Map
Tropical Storm Tracking
New forecast layout! Learn more

10-Day Weather Forecast

Advertisements
Track Severe Weather on mobile